KSUA/SUA METAR and TAF weather

Enter ICAO airport designator
Station Type Date Time Source
KSUA METAR 2020/08/12 16:47 UTC NOAA

KSUA 121647Z 10008KT 7SM SCT020 32/24 A3006


Station Type Date Time Source
KSUA Decoded METAR 2020/08/12 16:47 UTC NOAA

Stuart, Witham Field Airport, FL, United States (KSUA) 27-10-54N 080-13-16W
Aug 12, 2020 - 12:47 PM EDT / 2020.08.12 1647 UTC
Wind: from the E (100 degrees) at 9 MPH (8 KT):0
Visibility: 7 mile(s):0
Sky conditions: partly cloudy
Temperature: 89 F (32 C)
Heat index: 98.4 F (36.9 C):1
Dew Point: 75 F (24 C)
Relative Humidity: 62%
Pressure (altimeter): 30.06 in. Hg (1017 hPa)
ob: KSUA 121647Z 10008KT 7SM SCT020 32/24 A3006
cycle: 17

Station Type Date Time Source
KSUA TAF 2020/08/12 15:42 UTC NOAA

TAF
AMD KSUA 121439Z 1215/1312 VRB05KT P6SM VCSH FEW025 BKN250
FM121600 12009KT P6SM VCTS SCT035CB SCT060 BKN150
FM122200 15007KT P6SM VCSH FEW060 SCT120 BKN250
FM130100 VRB03KT P6SM FEW030 BKN250

Example: see airport list